sensor_id;sensor_type;location;lat;lon;timestamp;P1;durP1;ratioP1;P2;durP2;ratioP2
79371;SDS011;68914;51.262;6.802;2023-04-25T00:00:11;14.95;;;4.93;;
79371;SDS011;68914;51.262;6.802;2023-04-25T00:01:15;15.23;;;4.95;;
79371;SDS011;68914;51.262;6.802;2023-04-25T00:02:16;17.17;;;5.30;;
79371;SDS011;68914;51.262;6.802;2023-04-25T00:03:16;17.50;;;4.70;;
79371;SDS011;68914;51.262;6.802;2023-04-25T00:04:18;17.75;;;4.72;;
79371;SDS011;68914;51.262;6.802;2023-04-25T00:05:19;17.47;;;4.50;;
79371;SDS011;68914;51.262;6.802;2023-04-25T00:06:20;15.88;;;4.43;;
79371;SDS011;68914;51.262;6.802;2023-04-25T00:07:21;13.68;;;4.60;;
79371;SDS011;68914;51.262;6.802;2023-04-25T00:08:22;16.63;;;4.27;;
79371;SDS011;68914;51.262;6.802;2023-04-25T00:09:22;16.83;;;4.90;;
79371;SDS011;68914;51.262;6.802;2023-04-25T00:10:23;13.88;;;4.20;;
79371;SDS011;68914;51.262;6.802;2023-04-25T00:11:24;14.20;;;3.60;;
79371;SDS011;68914;51.262;6.802;2023-04-25T00:12:24;12.38;;;3.97;;
79371;SDS011;68914;51.262;6.802;2023-04-25T00:13:25;16.23;;;4.30;;
79371;SDS011;68914;51.262;6.802;2023-04-25T00:14:26;12.85;;;4.05;;
79371;SDS011;68914;51.262;6.802;2023-04-25T00:15:28;15.88;;;4.20;;
79371;SDS011;68914;51.262;6.802;2023-04-25T00:16:30;12.80;;;4.28;;
79371;SDS011;68914;51.262;6.802;2023-04-25T00:17:34;16.92;;;4.53;;
79371;SDS011;68914;51.262;6.802;2023-04-25T00:18:35;14.38;;;4.65;;
79371;SDS011;68914;51.262;6.802;2023-04-25T00:19:36;15.13;;;4.15;;
79371;SDS011;68914;51.262;6.802;2023-04-25T00:20:38;14.02;;;3.80;;
79371;SDS011;68914;51.262;6.802;2023-04-25T00:21:38;16.10;;;4.03;;
79371;SDS011;68914;51.262;6.802;2023-04-25T00:22:40;14.25;;;4.38;;
79371;SDS011;68914;51.262;6.802;2023-04-25T00:23:41;16.80;;;4.07;;
79371;SDS011;68914;51.262;6.802;2023-04-25T00:24:41;13.87;;;4.07;;
79371;SDS011;68914;51.262;6.802;2023-04-25T00:25:42;14.27;;;3.87;;
79371;SDS011;68914;51.262;6.802;2023-04-25T00:26:46;15.67;;;4.57;;
79371;SDS011;68914;51.262;6.802;2023-04-25T00:27:48;15.75;;;4.45;;
79371;SDS011;68914;51.262;6.802;2023-04-25T00:28:48;15.70;;;4.38;;
79371;SDS011;68914;51.262;6.802;2023-04-25T00:29:49;13.30;;;3.97;;
79371;SDS011;68914;51.262;6.802;2023-04-25T00:30:50;13.02;;;3.95;;
79371;SDS011;68914;51.262;6.802;2023-04-25T00:31:50;13.93;;;3.90;;
79371;SDS011;68914;51.262;6.802;2023-04-25T00:32:51;13.37;;;4.00;;
79371;SDS011;68914;51.262;6.802;2023-04-25T00:33:52;12.68;;;3.95;;
79371;SDS011;68914;51.262;6.802;2023-04-25T00:34:53;14.30;;;4.13;;
79371;SDS011;68914;51.262;6.802;2023-04-25T00:35:55;14.20;;;4.07;;
79371;SDS011;68914;51.262;6.802;2023-04-25T00:36:56;16.40;;;4.00;;
79371;SDS011;68914;51.262;6.802;2023-04-25T00:37:57;17.35;;;4.18;;
79371;SDS011;68914;51.262;6.802;2023-04-25T00:38:57;13.70;;;4.00;;
79371;SDS011;68914;51.262;6.802;2023-04-25T00:39:58;16.55;;;4.03;;
79371;SDS011;68914;51.262;6.802;2023-04-25T00:40:59;15.67;;;4.30;;
79371;SDS011;68914;51.262;6.802;2023-04-25T00:42:00;12.20;;;3.83;;
79371;SDS011;68914;51.262;6.802;2023-04-25T00:43:02;15.07;;;4.10;;
79371;SDS011;68914;51.262;6.802;2023-04-25T00:44:03;12.00;;;3.63;;
79371;SDS011;68914;51.262;6.802;2023-04-25T00:45:05;12.27;;;3.45;;
79371;SDS011;68914;51.262;6.802;2023-04-25T00:46:07;12.23;;;3.47;;
79371;SDS011;68914;51.262;6.802;2023-04-25T00:47:08;13.20;;;3.78;;
79371;SDS011;68914;51.262;6.802;2023-04-25T00:48:08;13.83;;;3.40;;
79371;SDS011;68914;51.262;6.802;2023-04-25T00:49:09;11.88;;;3.80;;
79371;SDS011;68914;51.262;6.802;2023-04-25T00:50:15;13.13;;;3.70;;
79371;SDS011;68914;51.262;6.802;2023-04-25T00:51:19;14.68;;;4.00;;
79371;SDS011;68914;51.262;6.802;2023-04-25T00:52:20;16.25;;;4.15;;
79371;SDS011;68914;51.262;6.802;2023-04-25T00:53:21;14.33;;;3.57;;
79371;SDS011;68914;51.262;6.802;2023-04-25T00:54:22;12.80;;;3.65;;
79371;SDS011;68914;51.262;6.802;2023-04-25T00:55:23;13.23;;;3.70;;
79371;SDS011;68914;51.262;6.802;2023-04-25T00:56:24;12.80;;;3.63;;
79371;SDS011;68914;51.262;6.802;2023-04-25T00:57:25;12.00;;;3.57;;
79371;SDS011;68914;51.262;6.802;2023-04-25T00:58:26;12.45;;;3.72;;
79371;SDS011;68914;51.262;6.802;2023-04-25T00:59:27;13.10;;;3.50;;
79371;SDS011;68914;51.262;6.802;2023-04-25T01:00:28;12.20;;;4.07;;
79371;SDS011;68914;51.262;6.802;2023-04-25T01:01:29;11.48;;;3.40;;
79371;SDS011;68914;51.262;6.802;2023-04-25T01:02:32;15.20;;;3.90;;
79371;SDS011;68914;51.262;6.802;2023-04-25T01:03:33;14.45;;;3.53;;
79371;SDS011;68914;51.262;6.802;2023-04-25T01:04:41;12.68;;;3.35;;
79371;SDS011;68914;51.262;6.802;2023-04-25T01:05:41;11.25;;;4.05;;
79371;SDS011;68914;51.262;6.802;2023-04-25T01:06:43;12.65;;;3.70;;
79371;SDS011;68914;51.262;6.802;2023-04-25T01:07:44;11.68;;;3.70;;
79371;SDS011;68914;51.262;6.802;2023-04-25T01:08:45;12.27;;;3.33;;
79371;SDS011;68914;51.262;6.802;2023-04-25T01:09:46;15.30;;;3.92;;
79371;SDS011;68914;51.262;6.802;2023-04-25T01:10:47;14.68;;;3.70;;
79371;SDS011;68914;51.262;6.802;2023-04-25T01:11:48;13.67;;;3.77;;
79371;SDS011;68914;51.262;6.802;2023-04-25T01:12:49;10.40;;;3.30;;
79371;SDS011;68914;51.262;6.802;2023-04-25T01:13:50;12.25;;;3.33;;
79371;SDS011;68914;51.262;6.802;2023-04-25T01:14:51;15.73;;;3.50;;
79371;SDS011;68914;51.262;6.802;2023-04-25T01:15:52;11.80;;;3.40;;
79371;SDS011;68914;51.262;6.802;2023-04-25T01:16:53;13.05;;;3.63;;
79371;SDS011;68914;51.262;6.802;2023-04-25T01:17:54;15.57;;;3.42;;
79371;SDS011;68914;51.262;6.802;2023-04-25T01:18:55;14.07;;;3.70;;
79371;SDS011;68914;51.262;6.802;2023-04-25T01:19:56;10.93;;;3.47;;
79371;SDS011;68914;51.262;6.802;2023-04-25T01:21:01;13.37;;;3.70;;
79371;SDS011;68914;51.262;6.802;2023-04-25T01:22:09;13.70;;;3.90;;
79371;SDS011;68914;51.262;6.802;2023-04-25T01:23:10;10.38;;;4.15;;
79371;SDS011;68914;51.262;6.802;2023-04-25T01:24:12;15.48;;;4.68;;
79371;SDS011;68914;51.262;6.802;2023-04-25T01:25:13;14.23;;;4.20;;
79371;SDS011;68914;51.262;6.802;2023-04-25T01:26:14;11.57;;;3.80;;
79371;SDS011;68914;51.262;6.802;2023-04-25T01:27:16;16.30;;;4.38;;
79371;SDS011;68914;51.262;6.802;2023-04-25T01:28:17;13.98;;;4.30;;
79371;SDS011;68914;51.262;6.802;2023-04-25T01:29:19;13.05;;;3.90;;
79371;SDS011;68914;51.262;6.802;2023-04-25T01:30:20;13.18;;;4.10;;
79371;SDS011;68914;51.262;6.802;2023-04-25T01:31:21;10.87;;;3.63;;
79371;SDS011;68914;51.262;6.802;2023-04-25T01:32:22;14.32;;;4.38;;
79371;SDS011;68914;51.262;6.802;2023-04-25T01:33:23;11.13;;;3.72;;
79371;SDS011;68914;51.262;6.802;2023-04-25T01:34:24;9.38;;;3.47;;
79371;SDS011;68914;51.262;6.802;2023-04-25T01:35:25;13.35;;;4.03;;
79371;SDS011;68914;51.262;6.802;2023-04-25T01:36:29;11.30;;;3.72;;
79371;SDS011;68914;51.262;6.802;2023-04-25T01:37:31;11.80;;;3.80;;
79371;SDS011;68914;51.262;6.802;2023-04-25T01:38:32;12.50;;;4.03;;
79371;SDS011;68914;51.262;6.802;2023-04-25T01:39:34;12.38;;;3.80;;
79371;SDS011;68914;51.262;6.802;2023-04-25T01:40:36;15.63;;;4.35;;
79371;SDS011;68914;51.262;6.802;2023-04-25T01:41:40;17.08;;;4.05;;
79371;SDS011;68914;51.262;6.802;2023-04-25T01:42:41;11.73;;;3.67;;
79371;SDS011;68914;51.262;6.802;2023-04-25T01:43:44;11.20;;;3.47;;
79371;SDS011;68914;51.262;6.802;2023-04-25T01:44:45;11.65;;;3.78;;
79371;SDS011;68914;51.262;6.802;2023-04-25T01:45:46;10.15;;;3.50;;
79371;SDS011;68914;51.262;6.802;2023-04-25T01:46:46;11.27;;;3.30;;
79371;SDS011;68914;51.262;6.802;2023-04-25T01:47:47;10.63;;;3.30;;
79371;SDS011;68914;51.262;6.802;2023-04-25T01:48:49;11.13;;;3.20;;
79371;SDS011;68914;51.262;6.802;2023-04-25T01:49:50;13.52;;;3.88;;
79371;SDS011;68914;51.262;6.802;2023-04-25T01:50:51;12.97;;;3.33;;
79371;SDS011;68914;51.262;6.802;2023-04-25T01:51:52;12.73;;;3.42;;
79371;SDS011;68914;51.262;6.802;2023-04-25T01:52:52;13.50;;;3.92;;
79371;SDS011;68914;51.262;6.802;2023-04-25T01:53:54;12.55;;;3.70;;
79371;SDS011;68914;51.262;6.802;2023-04-25T01:54:56;12.53;;;3.63;;
79371;SDS011;68914;51.262;6.802;2023-04-25T01:55:57;9.70;;;3.45;;
79371;SDS011;68914;51.262;6.802;2023-04-25T01:57:00;11.38;;;3.40;;
79371;SDS011;68914;51.262;6.802;2023-04-25T01:58:02;18.17;;;4.10;;
79371;SDS011;68914;51.262;6.802;2023-04-25T01:59:25;10.38;;;3.75;;
79371;SDS011;68914;51.262;6.802;2023-04-25T02:00:51;14.00;;;3.35;;
79371;SDS011;68914;51.262;6.802;2023-04-25T02:01:51;10.17;;;3.40;;
79371;SDS011;68914;51.262;6.802;2023-04-25T02:02:59;14.15;;;3.58;;
79371;SDS011;68914;51.262;6.802;2023-04-25T02:04:04;12.65;;;3.55;;
79371;SDS011;68914;51.262;6.802;2023-04-25T02:05:08;10.57;;;3.63;;
79371;SDS011;68914;51.262;6.802;2023-04-25T02:06:12;15.10;;;3.70;;
79371;SDS011;68914;51.262;6.802;2023-04-25T02:07:17;12.38;;;3.47;;
79371;SDS011;68914;51.262;6.802;2023-04-25T02:08:23;15.13;;;3.55;;
79371;SDS011;68914;51.262;6.802;2023-04-25T02:09:23;13.23;;;3.33;;
79371;SDS011;68914;51.262;6.802;2023-04-25T02:10:28;13.50;;;3.58;;
79371;SDS011;68914;51.262;6.802;2023-04-25T02:11:41;11.38;;;3.63;;
79371;SDS011;68914;51.262;6.802;2023-04-25T02:13:08;10.82;;;3.60;;
79371;SDS011;68914;51.262;6.802;2023-04-25T02:14:38;11.43;;;3.13;;
79371;SDS011;68914;51.262;6.802;2023-04-25T02:15:48;14.40;;;3.50;;
79371;SDS011;68914;51.262;6.802;2023-04-25T02:16:51;12.23;;;3.60;;
79371;SDS011;68914;51.262;6.802;2023-04-25T02:17:52;11.50;;;3.60;;
79371;SDS011;68914;51.262;6.802;2023-04-25T02:18:53;9.32;;;3.20;;
79371;SDS011;68914;51.262;6.802;2023-04-25T02:19:54;9.25;;;3.30;;
79371;SDS011;68914;51.262;6.802;2023-04-25T02:20:55;13.80;;;3.43;;
79371;SDS011;68914;51.262;6.802;2023-04-25T02:21:55;9.80;;;3.47;;
79371;SDS011;68914;51.262;6.802;2023-04-25T02:22:57;11.13;;;3.22;;
79371;SDS011;68914;51.262;6.802;2023-04-25T02:23:57;9.70;;;3.20;;
79371;SDS011;68914;51.262;6.802;2023-04-25T02:24:58;9.07;;;3.10;;
79371;SDS011;68914;51.262;6.802;2023-04-25T02:25:59;11.40;;;3.10;;
79371;SDS011;68914;51.262;6.802;2023-04-25T02:27:00;11.25;;;2.92;;
79371;SDS011;68914;51.262;6.802;2023-04-25T02:28:01;11.05;;;3.33;;
79371;SDS011;68914;51.262;6.802;2023-04-25T02:29:01;9.57;;;3.20;;
79371;SDS011;68914;51.262;6.802;2023-04-25T02:30:02;11.40;;;3.47;;
79371;SDS011;68914;51.262;6.802;2023-04-25T02:31:04;9.18;;;3.08;;
79371;SDS011;68914;51.262;6.802;2023-04-25T02:32:05;9.30;;;2.85;;
79371;SDS011;68914;51.262;6.802;2023-04-25T02:33:05;9.90;;;3.10;;
79371;SDS011;68914;51.262;6.802;2023-04-25T02:34:06;8.73;;;2.80;;
79371;SDS011;68914;51.262;6.802;2023-04-25T02:35:11;7.80;;;2.97;;
79371;SDS011;68914;51.262;6.802;2023-04-25T02:36:11;11.20;;;3.07;;
79371;SDS011;68914;51.262;6.802;2023-04-25T02:37:12;9.90;;;2.83;;
79371;SDS011;68914;51.262;6.802;2023-04-25T02:38:13;10.30;;;2.90;;
79371;SDS011;68914;51.262;6.802;2023-04-25T02:39:14;11.88;;;3.03;;
79371;SDS011;68914;51.262;6.802;2023-04-25T02:40:14;9.90;;;3.00;;
79371;SDS011;68914;51.262;6.802;2023-04-25T02:41:15;8.77;;;2.67;;
79371;SDS011;68914;51.262;6.802;2023-04-25T02:42:16;11.00;;;3.08;;
79371;SDS011;68914;51.262;6.802;2023-04-25T02:43:16;11.10;;;3.10;;
79371;SDS011;68914;51.262;6.802;2023-04-25T02:44:17;8.48;;;3.10;;
79371;SDS011;68914;51.262;6.802;2023-04-25T02:45:19;11.15;;;2.83;;
79371;SDS011;68914;51.262;6.802;2023-04-25T02:46:20;10.68;;;2.80;;
79371;SDS011;68914;51.262;6.802;2023-04-25T02:47:21;10.03;;;2.87;;
79371;SDS011;68914;51.262;6.802;2023-04-25T02:48:23;7.93;;;2.55;;
79371;SDS011;68914;51.262;6.802;2023-04-25T02:49:24;11.95;;;3.05;;
79371;SDS011;68914;51.262;6.802;2023-04-25T02:50:26;11.23;;;3.33;;
79371;SDS011;68914;51.262;6.802;2023-04-25T02:51:27;9.77;;;2.80;;
79371;SDS011;68914;51.262;6.802;2023-04-25T02:52:27;11.18;;;3.10;;
79371;SDS011;68914;51.262;6.802;2023-04-25T02:53:35;10.20;;;2.92;;
79371;SDS011;68914;51.262;6.802;2023-04-25T02:54:36;12.17;;;3.43;;
79371;SDS011;68914;51.262;6.802;2023-04-25T02:55:37;9.38;;;3.40;;
79371;SDS011;68914;51.262;6.802;2023-04-25T02:56:39;10.88;;;2.92;;
79371;SDS011;68914;51.262;6.802;2023-04-25T02:57:44;11.68;;;2.90;;
79371;SDS011;68914;51.262;6.802;2023-04-25T02:58:49;11.55;;;3.05;;
79371;SDS011;68914;51.262;6.802;2023-04-25T02:59:50;10.82;;;3.20;;
79371;SDS011;68914;51.262;6.802;2023-04-25T03:00:50;11.37;;;2.93;;
79371;SDS011;68914;51.262;6.802;2023-04-25T03:01:51;12.57;;;3.30;;
79371;SDS011;68914;51.262;6.802;2023-04-25T03:02:52;9.30;;;2.97;;
79371;SDS011;68914;51.262;6.802;2023-04-25T03:03:53;8.82;;;3.10;;
79371;SDS011;68914;51.262;6.802;2023-04-25T03:04:53;13.55;;;3.10;;
79371;SDS011;68914;51.262;6.802;2023-04-25T03:05:54;13.20;;;3.27;;
79371;SDS011;68914;51.262;6.802;2023-04-25T03:06:59;12.95;;;3.42;;
79371;SDS011;68914;51.262;6.802;2023-04-25T03:08:00;9.85;;;3.00;;
79371;SDS011;68914;51.262;6.802;2023-04-25T03:09:01;9.10;;;2.90;;
79371;SDS011;68914;51.262;6.802;2023-04-25T03:10:02;10.43;;;3.38;;
79371;SDS011;68914;51.262;6.802;2023-04-25T03:11:05;9.05;;;2.92;;
79371;SDS011;68914;51.262;6.802;2023-04-25T03:12:06;11.20;;;3.20;;
79371;SDS011;68914;51.262;6.802;2023-04-25T03:13:07;10.65;;;3.35;;
79371;SDS011;68914;51.262;6.802;2023-04-25T03:14:08;9.60;;;3.28;;
79371;SDS011;68914;51.262;6.802;2023-04-25T03:15:09;10.80;;;3.13;;
79371;SDS011;68914;51.262;6.802;2023-04-25T03:16:10;13.27;;;3.80;;
79371;SDS011;68914;51.262;6.802;2023-04-25T03:17:11;13.27;;;3.33;;
79371;SDS011;68914;51.262;6.802;2023-04-25T03:18:11;11.33;;;3.30;;
79371;SDS011;68914;51.262;6.802;2023-04-25T03:19:13;10.80;;;3.50;;
79371;SDS011;68914;51.262;6.802;2023-04-25T03:20:16;13.85;;;4.25;;
79371;SDS011;68914;51.262;6.802;2023-04-25T03:21:17;11.55;;;3.78;;
79371;SDS011;68914;51.262;6.802;2023-04-25T03:22:17;11.63;;;4.03;;
79371;SDS011;68914;51.262;6.802;2023-04-25T03:23:18;12.47;;;3.90;;
79371;SDS011;68914;51.262;6.802;2023-04-25T03:24:19;12.30;;;3.70;;
79371;SDS011;68914;51.262;6.802;2023-04-25T03:25:20;12.57;;;3.63;;
79371;SDS011;68914;51.262;6.802;2023-04-25T03:26:21;10.60;;;3.20;;
79371;SDS011;68914;51.262;6.802;2023-04-25T03:27:22;10.68;;;3.50;;
79371;SDS011;68914;51.262;6.802;2023-04-25T03:28:23;12.02;;;3.78;;
79371;SDS011;68914;51.262;6.802;2023-04-25T03:29:24;11.38;;;3.42;;
79371;SDS011;68914;51.262;6.802;2023-04-25T03:30:26;10.68;;;3.60;;
79371;SDS011;68914;51.262;6.802;2023-04-25T03:31:27;11.43;;;3.57;;
79371;SDS011;68914;51.262;6.802;2023-04-25T03:32:28;12.23;;;3.88;;
79371;SDS011;68914;51.262;6.802;2023-04-25T03:33:29;12.38;;;3.90;;
79371;SDS011;68914;51.262;6.802;2023-04-25T03:34:29;12.13;;;3.67;;
79371;SDS011;68914;51.262;6.802;2023-04-25T03:35:31;14.73;;;3.50;;
79371;SDS011;68914;51.262;6.802;2023-04-25T03:36:31;12.82;;;3.55;;
79371;SDS011;68914;51.262;6.802;2023-04-25T03:37:34;12.77;;;3.75;;
79371;SDS011;68914;51.262;6.802;2023-04-25T03:38:35;10.45;;;3.70;;
79371;SDS011;68914;51.262;6.802;2023-04-25T03:39:37;14.07;;;4.15;;
79371;SDS011;68914;51.262;6.802;2023-04-25T03:40:38;15.10;;;3.72;;
79371;SDS011;68914;51.262;6.802;2023-04-25T03:41:49;14.90;;;3.80;;
79371;SDS011;68914;51.262;6.802;2023-04-25T03:42:51;16.50;;;4.00;;
79371;SDS011;68914;51.262;6.802;2023-04-25T03:43:52;12.45;;;3.97;;
79371;SDS011;68914;51.262;6.802;2023-04-25T03:44:53;12.07;;;3.92;;
79371;SDS011;68914;51.262;6.802;2023-04-25T03:45:54;12.27;;;3.80;;
79371;SDS011;68914;51.262;6.802;2023-04-25T03:46:56;12.93;;;4.13;;
79371;SDS011;68914;51.262;6.802;2023-04-25T03:47:58;13.25;;;3.97;;
79371;SDS011;68914;51.262;6.802;2023-04-25T03:48:59;12.15;;;3.75;;
79371;SDS011;68914;51.262;6.802;2023-04-25T03:50:09;13.73;;;3.90;;
79371;SDS011;68914;51.262;6.802;2023-04-25T03:51:10;19.42;;;4.32;;
79371;SDS011;68914;51.262;6.802;2023-04-25T03:52:15;12.25;;;3.75;;
79371;SDS011;68914;51.262;6.802;2023-04-25T03:53:18;15.50;;;4.22;;
79371;SDS011;68914;51.262;6.802;2023-04-25T03:54:42;13.82;;;4.05;;
79371;SDS011;68914;51.262;6.802;2023-04-25T03:55:47;10.75;;;3.70;;
79371;SDS011;68914;51.262;6.802;2023-04-25T03:56:47;16.33;;;4.10;;
79371;SDS011;68914;51.262;6.802;2023-04-25T03:57:53;17.73;;;4.20;;
79371;SDS011;68914;51.262;6.802;2023-04-25T03:58:53;14.60;;;4.30;;
79371;SDS011;68914;51.262;6.802;2023-04-25T03:59:56;13.38;;;4.05;;
79371;SDS011;68914;51.262;6.802;2023-04-25T04:00:58;15.00;;;3.88;;
79371;SDS011;68914;51.262;6.802;2023-04-25T04:01:59;15.90;;;3.97;;
79371;SDS011;68914;51.262;6.802;2023-04-25T04:03:00;14.35;;;4.50;;
79371;SDS011;68914;51.262;6.802;2023-04-25T04:04:01;14.98;;;4.30;;
79371;SDS011;68914;51.262;6.802;2023-04-25T04:05:03;15.32;;;4.20;;
79371;SDS011;68914;51.262;6.802;2023-04-25T04:06:04;16.98;;;3.97;;
79371;SDS011;68914;51.262;6.802;2023-04-25T04:07:09;18.40;;;4.40;;
79371;SDS011;68914;51.262;6.802;2023-04-25T04:08:13;16.45;;;4.65;;
79371;SDS011;68914;51.262;6.802;2023-04-25T04:09:14;14.67;;;4.40;;
79371;SDS011;68914;51.262;6.802;2023-04-25T04:10:17;13.32;;;4.70;;
79371;SDS011;68914;51.262;6.802;2023-04-25T04:11:18;13.95;;;4.20;;
79371;SDS011;68914;51.262;6.802;2023-04-25T04:12:18;15.82;;;4.13;;
79371;SDS011;68914;51.262;6.802;2023-04-25T04:13:19;14.27;;;4.10;;
79371;SDS011;68914;51.262;6.802;2023-04-25T04:14:20;12.80;;;3.85;;
79371;SDS011;68914;51.262;6.802;2023-04-25T04:15:22;18.92;;;4.53;;
79371;SDS011;68914;51.262;6.802;2023-04-25T04:16:23;18.43;;;4.30;;
79371;SDS011;68914;51.262;6.802;2023-04-25T04:17:24;14.73;;;4.13;;
79371;SDS011;68914;51.262;6.802;2023-04-25T04:18:26;13.85;;;4.10;;
79371;SDS011;68914;51.262;6.802;2023-04-25T04:19:27;14.88;;;4.55;;
79371;SDS011;68914;51.262;6.802;2023-04-25T04:20:40;18.65;;;4.40;;
79371;SDS011;68914;51.262;6.802;2023-04-25T04:21:41;14.10;;;4.13;;
79371;SDS011;68914;51.262;6.802;2023-04-25T04:22:42;14.53;;;4.20;;
79371;SDS011;68914;51.262;6.802;2023-04-25T04:23:48;15.55;;;3.90;;
79371;SDS011;68914;51.262;6.802;2023-04-25T04:24:49;14.73;;;4.20;;
79371;SDS011;68914;51.262;6.802;2023-04-25T04:25:55;14.57;;;4.65;;
79371;SDS011;68914;51.262;6.802;2023-04-25T04:27:23;16.75;;;4.32;;
79371;SDS011;68914;51.262;6.802;2023-04-25T04:28:50;16.95;;;4.25;;
79371;SDS011;68914;51.262;6.802;2023-04-25T04:30:03;13.98;;;3.55;;
79371;SDS011;68914;51.262;6.802;2023-04-25T04:31:08;17.73;;;4.50;;
79371;SDS011;68914;51.262;6.802;2023-04-25T04:32:09;16.58;;;4.30;;
79371;SDS011;68914;51.262;6.802;2023-04-25T04:33:10;19.75;;;4.53;;
79371;SDS011;68914;51.262;6.802;2023-04-25T04:34:12;16.52;;;4.30;;
79371;SDS011;68914;51.262;6.802;2023-04-25T04:35:13;14.25;;;4.35;;
79371;SDS011;68914;51.262;6.802;2023-04-25T04:36:14;13.90;;;3.95;;
79371;SDS011;68914;51.262;6.802;2023-04-25T04:37:16;12.75;;;4.15;;
79371;SDS011;68914;51.262;6.802;2023-04-25T04:38:17;14.10;;;4.07;;
79371;SDS011;68914;51.262;6.802;2023-04-25T04:39:19;13.55;;;4.28;;
79371;SDS011;68914;51.262;6.802;2023-04-25T04:40:50;12.45;;;3.97;;
79371;SDS011;68914;51.262;6.802;2023-04-25T04:41:56;16.03;;;4.20;;
79371;SDS011;68914;51.262;6.802;2023-04-25T04:43:15;16.42;;;4.93;;
79371;SDS011;68914;51.262;6.802;2023-04-25T04:44:37;17.38;;;4.05;;
79371;SDS011;68914;51.262;6.802;2023-04-25T04:46:02;15.88;;;4.40;;
79371;SDS011;68914;51.262;6.802;2023-04-25T04:47:24;15.30;;;4.35;;
79371;SDS011;68914;51.262;6.802;2023-04-25T04:48:49;14.88;;;4.18;;
79371;SDS011;68914;51.262;6.802;2023-04-25T04:50:08;14.65;;;4.07;;
79371;SDS011;68914;51.262;6.802;2023-04-25T04:51:28;13.60;;;3.85;;
79371;SDS011;68914;51.262;6.802;2023-04-25T04:52:28;12.17;;;3.90;;
79371;SDS011;68914;51.262;6.802;2023-04-25T04:53:37;15.15;;;3.83;;
79371;SDS011;68914;51.262;6.802;2023-04-25T04:54:52;15.65;;;4.03;;
79371;SDS011;68914;51.262;6.802;2023-04-25T04:56:16;16.35;;;4.03;;
79371;SDS011;68914;51.262;6.802;2023-04-25T04:57:43;11.90;;;3.60;;
79371;SDS011;68914;51.262;6.802;2023-04-25T04:58:50;15.55;;;3.95;;
79371;SDS011;68914;51.262;6.802;2023-04-25T05:00:13;15.50;;;4.22;;
79371;SDS011;68914;51.262;6.802;2023-04-25T05:01:34;14.60;;;4.10;;
79371;SDS011;68914;51.262;6.802;2023-04-25T05:02:57;14.63;;;3.70;;
79371;SDS011;68914;51.262;6.802;2023-04-25T05:04:04;16.58;;;4.40;;
79371;SDS011;68914;51.262;6.802;2023-04-25T05:05:24;13.90;;;4.35;;
79371;SDS011;68914;51.262;6.802;2023-04-25T05:06:36;18.67;;;3.97;;
79371;SDS011;68914;51.262;6.802;2023-04-25T05:08:02;16.38;;;4.20;;
79371;SDS011;68914;51.262;6.802;2023-04-25T05:09:21;15.07;;;4.38;;
79371;SDS011;68914;51.262;6.802;2023-04-25T05:10:39;16.88;;;4.07;;
79371;SDS011;68914;51.262;6.802;2023-04-25T05:11:58;16.13;;;4.07;;
79371;SDS011;68914;51.262;6.802;2023-04-25T05:13:11;17.02;;;4.22;;
79371;SDS011;68914;51.262;6.802;2023-04-25T05:14:32;15.85;;;4.30;;
79371;SDS011;68914;51.262;6.802;2023-04-25T05:15:50;14.90;;;4.27;;
79371;SDS011;68914;51.262;6.802;2023-04-25T05:17:29;13.40;;;3.75;;
79371;SDS011;68914;51.262;6.802;2023-04-25T05:18:47;16.58;;;3.78;;
79371;SDS011;68914;51.262;6.802;2023-04-25T05:20:17;16.08;;;3.80;;
79371;SDS011;68914;51.262;6.802;2023-04-25T05:21:38;15.20;;;3.67;;
79371;SDS011;68914;51.262;6.802;2023-04-25T05:22:44;13.77;;;4.20;;
79371;SDS011;68914;51.262;6.802;2023-04-25T05:23:55;18.75;;;4.60;;
79371;SDS011;68914;51.262;6.802;2023-04-25T05:25:18;14.40;;;4.10;;
79371;SDS011;68914;51.262;6.802;2023-04-25T05:26:34;16.40;;;3.85;;
79371;SDS011;68914;51.262;6.802;2023-04-25T05:27:55;17.30;;;4.03;;
79371;SDS011;68914;51.262;6.802;2023-04-25T05:29:17;14.20;;;3.97;;
79371;SDS011;68914;51.262;6.802;2023-04-25T05:30:56;12.90;;;3.90;;
79371;SDS011;68914;51.262;6.802;2023-04-25T05:32:06;14.45;;;4.10;;
79371;SDS011;68914;51.262;6.802;2023-04-25T05:33:08;18.20;;;4.30;;
79371;SDS011;68914;51.262;6.802;2023-04-25T05:34:09;16.38;;;4.13;;
79371;SDS011;68914;51.262;6.802;2023-04-25T05:35:25;12.35;;;3.92;;
79371;SDS011;68914;51.262;6.802;2023-04-25T05:36:26;13.23;;;3.88;;
79371;SDS011;68914;51.262;6.802;2023-04-25T05:37:27;12.40;;;3.90;;
79371;SDS011;68914;51.262;6.802;2023-04-25T05:38:43;14.57;;;4.00;;
79371;SDS011;68914;51.262;6.802;2023-04-25T05:40:02;15.23;;;3.90;;
79371;SDS011;68914;51.262;6.802;2023-04-25T05:41:18;12.70;;;3.67;;
79371;SDS011;68914;51.262;6.802;2023-04-25T05:42:22;15.80;;;3.80;;
79371;SDS011;68914;51.262;6.802;2023-04-25T05:43:40;17.05;;;3.88;;
79371;SDS011;68914;51.262;6.802;2023-04-25T05:45:20;13.32;;;3.78;;
79371;SDS011;68914;51.262;6.802;2023-04-25T05:46:40;16.63;;;3.92;;
79371;SDS011;68914;51.262;6.802;2023-04-25T05:47:52;15.73;;;3.95;;
79371;SDS011;68914;51.262;6.802;2023-04-25T05:49:03;13.27;;;3.97;;
79371;SDS011;68914;51.262;6.802;2023-04-25T05:50:16;16.40;;;3.75;;
79371;SDS011;68914;51.262;6.802;2023-04-25T05:51:33;13.67;;;3.37;;
79371;SDS011;68914;51.262;6.802;2023-04-25T05:53:07;14.93;;;4.05;;
79371;SDS011;68914;51.262;6.802;2023-04-25T05:54:14;12.68;;;3.60;;
79371;SDS011;68914;51.262;6.802;2023-04-25T05:55:15;13.88;;;3.92;;
79371;SDS011;68914;51.262;6.802;2023-04-25T05:56:16;15.52;;;3.55;;
79371;SDS011;68914;51.262;6.802;2023-04-25T05:57:23;13.07;;;3.63;;
79371;SDS011;68914;51.262;6.802;2023-04-25T05:58:26;15.18;;;3.75;;
79371;SDS011;68914;51.262;6.802;2023-04-25T05:59:28;14.00;;;4.00;;
79371;SDS011;68914;51.262;6.802;2023-04-25T06:00:28;13.15;;;4.47;;
79371;SDS011;68914;51.262;6.802;2023-04-25T06:01:29;19.47;;;4.03;;
79371;SDS011;68914;51.262;6.802;2023-04-25T06:02:30;12.60;;;4.05;;
79371;SDS011;68914;51.262;6.802;2023-04-25T06:03:31;15.15;;;4.38;;
79371;SDS011;68914;51.262;6.802;2023-04-25T06:04:32;11.88;;;4.15;;
79371;SDS011;68914;51.262;6.802;2023-04-25T06:05:34;14.20;;;4.07;;
79371;SDS011;68914;51.262;6.802;2023-04-25T06:06:35;12.73;;;3.67;;
79371;SDS011;68914;51.262;6.802;2023-04-25T06:07:36;15.50;;;4.20;;
79371;SDS011;68914;51.262;6.802;2023-04-25T06:08:37;11.63;;;4.25;;
79371;SDS011;68914;51.262;6.802;2023-04-25T06:09:38;11.63;;;3.83;;
79371;SDS011;68914;51.262;6.802;2023-04-25T06:10:40;12.80;;;3.63;;
79371;SDS011;68914;51.262;6.802;2023-04-25T06:11:40;15.03;;;4.57;;
79371;SDS011;68914;51.262;6.802;2023-04-25T06:12:41;17.15;;;4.05;;
79371;SDS011;68914;51.262;6.802;2023-04-25T06:13:42;14.40;;;3.85;;
79371;SDS011;68914;51.262;6.802;2023-04-25T06:14:43;13.27;;;3.75;;
79371;SDS011;68914;51.262;6.802;2023-04-25T06:15:44;11.83;;;3.60;;
79371;SDS011;68914;51.262;6.802;2023-04-25T06:16:45;13.65;;;3.70;;
79371;SDS011;68914;51.262;6.802;2023-04-25T06:17:46;14.73;;;4.07;;
79371;SDS011;68914;51.262;6.802;2023-04-25T06:18:47;11.30;;;3.50;;
79371;SDS011;68914;51.262;6.802;2023-04-25T06:19:48;13.07;;;4.07;;
79371;SDS011;68914;51.262;6.802;2023-04-25T06:20:48;13.30;;;4.03;;
79371;SDS011;68914;51.262;6.802;2023-04-25T06:21:50;19.27;;;4.68;;
79371;SDS011;68914;51.262;6.802;2023-04-25T06:22:51;12.93;;;3.90;;
79371;SDS011;68914;51.262;6.802;2023-04-25T06:23:52;12.40;;;3.83;;
79371;SDS011;68914;51.262;6.802;2023-04-25T06:24:56;12.25;;;3.88;;